sensor_id;sensor_type;location;lat;lon;timestamp;P1;durP1;ratioP1;P2;durP2;ratioP2
8230;SDS011;4156;50.908;6.974;2022-09-01T00:01:13;2.53;;;1.30;;
8230;SDS011;4156;50.908;6.974;2022-09-01T00:03:44;3.23;;;1.80;;
8230;SDS011;4156;50.908;6.974;2022-09-01T00:06:16;2.50;;;1.67;;
8230;SDS011;4156;50.908;6.974;2022-09-01T00:08:48;2.27;;;1.80;;
8230;SDS011;4156;50.908;6.974;2022-09-01T00:11:14;2.27;;;1.80;;
8230;SDS011;4156;50.908;6.974;2022-09-01T00:13:40;2.53;;;1.63;;
8230;SDS011;4156;50.908;6.974;2022-09-01T00:16:06;4.47;;;1.60;;
8230;SDS011;4156;50.908;6.974;2022-09-01T00:18:31;1.97;;;1.77;;
8230;SDS011;4156;50.908;6.974;2022-09-01T00:20:58;3.00;;;1.70;;
8230;SDS011;4156;50.908;6.974;2022-09-01T00:23:24;1.90;;;1.70;;
8230;SDS011;4156;50.908;6.974;2022-09-01T00:25:52;2.37;;;2.00;;
8230;SDS011;4156;50.908;6.974;2022-09-01T00:28:18;2.47;;;1.90;;
8230;SDS011;4156;50.908;6.974;2022-09-01T00:30:44;3.20;;;1.90;;
8230;SDS011;4156;50.908;6.974;2022-09-01T00:33:09;2.60;;;1.80;;
8230;SDS011;4156;50.908;6.974;2022-09-01T00:35:35;1.93;;;1.67;;
8230;SDS011;4156;50.908;6.974;2022-09-01T00:38:00;1.90;;;1.70;;
8230;SDS011;4156;50.908;6.974;2022-09-01T00:40:26;2.30;;;1.70;;
8230;SDS011;4156;50.908;6.974;2022-09-01T00:42:51;1.73;;;1.60;;
8230;SDS011;4156;50.908;6.974;2022-09-01T00:45:17;3.13;;;1.80;;
8230;SDS011;4156;50.908;6.974;2022-09-01T00:47:45;4.57;;;1.70;;
8230;SDS011;4156;50.908;6.974;2022-09-01T00:50:12;2.90;;;1.97;;
8230;SDS011;4156;50.908;6.974;2022-09-01T00:52:42;2.13;;;1.80;;
8230;SDS011;4156;50.908;6.974;2022-09-01T00:55:15;2.40;;;1.77;;
8230;SDS011;4156;50.908;6.974;2022-09-01T00:57:45;3.13;;;2.07;;
8230;SDS011;4156;50.908;6.974;2022-09-01T01:02:41;4.40;;;1.90;;
8230;SDS011;4156;50.908;6.974;2022-09-01T01:05:09;3.70;;;1.80;;
8230;SDS011;4156;50.908;6.974;2022-09-01T01:07:35;6.03;;;2.20;;
8230;SDS011;4156;50.908;6.974;2022-09-01T01:10:09;3.17;;;2.03;;
8230;SDS011;4156;50.908;6.974;2022-09-01T01:12:36;2.30;;;1.93;;
8230;SDS011;4156;50.908;6.974;2022-09-01T01:15:04;2.27;;;1.90;;
8230;SDS011;4156;50.908;6.974;2022-09-01T01:17:31;2.30;;;1.90;;
8230;SDS011;4156;50.908;6.974;2022-09-01T01:19:57;2.10;;;1.90;;
8230;SDS011;4156;50.908;6.974;2022-09-01T01:25:52;3.03;;;2.00;;
8230;SDS011;4156;50.908;6.974;2022-09-01T01:28:22;2.77;;;2.03;;
8230;SDS011;4156;50.908;6.974;2022-09-01T01:30:55;2.87;;;2.67;;
8230;SDS011;4156;50.908;6.974;2022-09-01T01:33:28;3.03;;;1.90;;
8230;SDS011;4156;50.908;6.974;2022-09-01T01:35:56;2.93;;;1.73;;
8230;SDS011;4156;50.908;6.974;2022-09-01T01:38:22;3.63;;;2.20;;
8230;SDS011;4156;50.908;6.974;2022-09-01T01:40:48;3.77;;;1.90;;
8230;SDS011;4156;50.908;6.974;2022-09-01T01:43:15;1.80;;;1.70;;
8230;SDS011;4156;50.908;6.974;2022-09-01T01:45:44;4.63;;;1.80;;
8230;SDS011;4156;50.908;6.974;2022-09-01T01:48:11;2.60;;;1.83;;
8230;SDS011;4156;50.908;6.974;2022-09-01T01:50:37;3.47;;;1.97;;
8230;SDS011;4156;50.908;6.974;2022-09-01T01:53:04;3.07;;;2.07;;
8230;SDS011;4156;50.908;6.974;2022-09-01T01:55:31;2.43;;;1.80;;
8230;SDS011;4156;50.908;6.974;2022-09-01T01:57:58;2.17;;;1.60;;
8230;SDS011;4156;50.908;6.974;2022-09-01T02:00:29;2.10;;;1.90;;
8230;SDS011;4156;50.908;6.974;2022-09-01T02:02:59;2.27;;;1.90;;
8230;SDS011;4156;50.908;6.974;2022-09-01T02:05:27;2.90;;;2.03;;
8230;SDS011;4156;50.908;6.974;2022-09-01T02:07:57;2.37;;;2.10;;
8230;SDS011;4156;50.908;6.974;2022-09-01T02:10:26;6.90;;;2.30;;
8230;SDS011;4156;50.908;6.974;2022-09-01T02:12:55;3.37;;;2.70;;
8230;SDS011;4156;50.908;6.974;2022-09-01T02:15:27;4.67;;;3.57;;
8230;SDS011;4156;50.908;6.974;2022-09-01T02:17:53;4.17;;;3.30;;
8230;SDS011;4156;50.908;6.974;2022-09-01T02:20:21;4.27;;;3.30;;
8230;SDS011;4156;50.908;6.974;2022-09-01T02:22:47;2.33;;;1.90;;
8230;SDS011;4156;50.908;6.974;2022-09-01T02:25:12;1.83;;;1.73;;
8230;SDS011;4156;50.908;6.974;2022-09-01T02:27:40;2.10;;;1.90;;
8230;SDS011;4156;50.908;6.974;2022-09-01T02:30:07;4.10;;;2.10;;
8230;SDS011;4156;50.908;6.974;2022-09-01T02:32:35;2.20;;;1.80;;
8230;SDS011;4156;50.908;6.974;2022-09-01T02:35:01;1.67;;;1.57;;
8230;SDS011;4156;50.908;6.974;2022-09-01T02:37:32;2.70;;;1.70;;
8230;SDS011;4156;50.908;6.974;2022-09-01T02:39:58;2.30;;;1.83;;
8230;SDS011;4156;50.908;6.974;2022-09-01T02:42:24;2.37;;;2.10;;
8230;SDS011;4156;50.908;6.974;2022-09-01T02:44:53;3.97;;;2.17;;
8230;SDS011;4156;50.908;6.974;2022-09-01T02:47:20;2.47;;;2.17;;
8230;SDS011;4156;50.908;6.974;2022-09-01T02:49:47;4.10;;;2.40;;
8230;SDS011;4156;50.908;6.974;2022-09-01T02:52:16;4.03;;;2.40;;
8230;SDS011;4156;50.908;6.974;2022-09-01T02:54:44;2.30;;;2.00;;
8230;SDS011;4156;50.908;6.974;2022-09-01T02:57:12;2.93;;;2.03;;
8230;SDS011;4156;50.908;6.974;2022-09-01T02:59:38;3.57;;;2.20;;
8230;SDS011;4156;50.908;6.974;2022-09-01T03:02:06;6.70;;;2.50;;
8230;SDS011;4156;50.908;6.974;2022-09-01T03:04:32;2.17;;;1.93;;
8230;SDS011;4156;50.908;6.974;2022-09-01T03:06:59;3.03;;;2.10;;
8230;SDS011;4156;50.908;6.974;2022-09-01T03:09:29;4.50;;;2.07;;
8230;SDS011;4156;50.908;6.974;2022-09-01T03:11:56;1.80;;;1.70;;
8230;SDS011;4156;50.908;6.974;2022-09-01T03:14:23;3.67;;;1.90;;
8230;SDS011;4156;50.908;6.974;2022-09-01T03:16:49;4.30;;;1.90;;
8230;SDS011;4156;50.908;6.974;2022-09-01T03:19:15;2.47;;;1.83;;
8230;SDS011;4156;50.908;6.974;2022-09-01T03:21:43;3.20;;;1.60;;
8230;SDS011;4156;50.908;6.974;2022-09-01T03:24:11;2.20;;;1.90;;
8230;SDS011;4156;50.908;6.974;2022-09-01T03:26:40;3.53;;;2.00;;
8230;SDS011;4156;50.908;6.974;2022-09-01T03:29:07;2.93;;;1.90;;
8230;SDS011;4156;50.908;6.974;2022-09-01T03:31:33;3.63;;;1.90;;
8230;SDS011;4156;50.908;6.974;2022-09-01T03:34:00;1.70;;;1.60;;
8230;SDS011;4156;50.908;6.974;2022-09-01T03:36:27;1.93;;;1.73;;
8230;SDS011;4156;50.908;6.974;2022-09-01T03:38:55;1.63;;;1.53;;
8230;SDS011;4156;50.908;6.974;2022-09-01T03:41:22;4.03;;;1.70;;
8230;SDS011;4156;50.908;6.974;2022-09-01T03:43:52;5.77;;;2.03;;
8230;SDS011;4156;50.908;6.974;2022-09-01T03:46:19;2.60;;;1.80;;
8230;SDS011;4156;50.908;6.974;2022-09-01T03:48:55;2.90;;;1.90;;
8230;SDS011;4156;50.908;6.974;2022-09-01T03:51:25;4.33;;;1.67;;
8230;SDS011;4156;50.908;6.974;2022-09-01T03:53:55;4.20;;;1.97;;
8230;SDS011;4156;50.908;6.974;2022-09-01T03:56:22;4.60;;;1.60;;
8230;SDS011;4156;50.908;6.974;2022-09-01T03:58:50;3.63;;;2.00;;
8230;SDS011;4156;50.908;6.974;2022-09-01T04:01:17;3.40;;;1.77;;
8230;SDS011;4156;50.908;6.974;2022-09-01T04:03:43;2.90;;;1.90;;
8230;SDS011;4156;50.908;6.974;2022-09-01T04:06:11;4.53;;;2.07;;
8230;SDS011;4156;50.908;6.974;2022-09-01T04:08:37;2.37;;;1.90;;
8230;SDS011;4156;50.908;6.974;2022-09-01T04:11:08;2.17;;;1.60;;
8230;SDS011;4156;50.908;6.974;2022-09-01T04:13:38;2.40;;;1.80;;
8230;SDS011;4156;50.908;6.974;2022-09-01T04:16:05;3.13;;;1.77;;
8230;SDS011;4156;50.908;6.974;2022-09-01T04:18:53;3.80;;;1.80;;
8230;SDS011;4156;50.908;6.974;2022-09-01T04:21:19;2.27;;;1.90;;
8230;SDS011;4156;50.908;6.974;2022-09-01T04:23:44;2.40;;;1.70;;
8230;SDS011;4156;50.908;6.974;2022-09-01T04:26:11;2.50;;;1.80;;
8230;SDS011;4156;50.908;6.974;2022-09-01T04:28:40;2.63;;;1.70;;
8230;SDS011;4156;50.908;6.974;2022-09-01T04:31:11;3.93;;;1.90;;
8230;SDS011;4156;50.908;6.974;2022-09-01T04:33:43;3.77;;;2.17;;
8230;SDS011;4156;50.908;6.974;2022-09-01T04:36:23;3.60;;;1.57;;
8230;SDS011;4156;50.908;6.974;2022-09-01T04:38:58;4.53;;;2.00;;
8230;SDS011;4156;50.908;6.974;2022-09-01T04:41:26;3.20;;;1.60;;
8230;SDS011;4156;50.908;6.974;2022-09-01T04:43:56;3.63;;;1.73;;
8230;SDS011;4156;50.908;6.974;2022-09-01T04:46:26;3.27;;;1.90;;
8230;SDS011;4156;50.908;6.974;2022-09-01T04:48:53;4.33;;;1.60;;
8230;SDS011;4156;50.908;6.974;2022-09-01T04:51:20;4.47;;;1.90;;
8230;SDS011;4156;50.908;6.974;2022-09-01T04:53:46;2.50;;;2.03;;
8230;SDS011;4156;50.908;6.974;2022-09-01T04:56:16;2.03;;;1.60;;
8230;SDS011;4156;50.908;6.974;2022-09-01T04:58:45;2.03;;;1.70;;
8230;SDS011;4156;50.908;6.974;2022-09-01T05:01:12;2.20;;;1.77;;
8230;SDS011;4156;50.908;6.974;2022-09-01T05:03:39;2.10;;;1.60;;
8230;SDS011;4156;50.908;6.974;2022-09-01T05:06:05;2.03;;;1.67;;
8230;SDS011;4156;50.908;6.974;2022-09-01T05:08:37;2.80;;;1.73;;
8230;SDS011;4156;50.908;6.974;2022-09-01T05:11:04;7.20;;;2.07;;
8230;SDS011;4156;50.908;6.974;2022-09-01T05:13:32;2.07;;;1.80;;
8230;SDS011;4156;50.908;6.974;2022-09-01T05:16:00;5.53;;;2.40;;
8230;SDS011;4156;50.908;6.974;2022-09-01T05:18:28;4.57;;;2.33;;
8230;SDS011;4156;50.908;6.974;2022-09-01T05:20:54;13.63;;;1.90;;
8230;SDS011;4156;50.908;6.974;2022-09-01T05:23:21;2.73;;;2.30;;
8230;SDS011;4156;50.908;6.974;2022-09-01T05:25:48;3.10;;;1.70;;
8230;SDS011;4156;50.908;6.974;2022-09-01T05:28:18;7.80;;;2.00;;
8230;SDS011;4156;50.908;6.974;2022-09-01T05:30:48;3.00;;;2.10;;
8230;SDS011;4156;50.908;6.974;2022-09-01T05:33:14;2.90;;;2.10;;
8230;SDS011;4156;50.908;6.974;2022-09-01T05:35:41;2.97;;;1.97;;
8230;SDS011;4156;50.908;6.974;2022-09-01T05:38:10;3.53;;;1.80;;
8230;SDS011;4156;50.908;6.974;2022-09-01T05:40:41;3.07;;;1.80;;
8230;SDS011;4156;50.908;6.974;2022-09-01T05:43:08;2.88;;;1.90;;
8230;SDS011;4156;50.908;6.974;2022-09-01T05:45:38;3.03;;;1.80;;
8230;SDS011;4156;50.908;6.974;2022-09-01T05:48:07;2.00;;;1.70;;
8230;SDS011;4156;50.908;6.974;2022-09-01T05:50:40;2.63;;;1.70;;
8230;SDS011;4156;50.908;6.974;2022-09-01T05:53:07;3.40;;;1.70;;
8230;SDS011;4156;50.908;6.974;2022-09-01T05:55:39;3.13;;;1.63;;
8230;SDS011;4156;50.908;6.974;2022-09-01T05:58:07;4.30;;;1.80;;
8230;SDS011;4156;50.908;6.974;2022-09-01T06:00:43;3.67;;;2.03;;
8230;SDS011;4156;50.908;6.974;2022-09-01T06:03:13;3.67;;;2.20;;
8230;SDS011;4156;50.908;6.974;2022-09-01T06:05:39;3.07;;;1.77;;
8230;SDS011;4156;50.908;6.974;2022-09-01T06:08:07;2.43;;;1.70;;
8230;SDS011;4156;50.908;6.974;2022-09-01T06:10:38;2.70;;;1.67;;
8230;SDS011;4156;50.908;6.974;2022-09-01T06:13:06;2.97;;;1.47;;
8230;SDS011;4156;50.908;6.974;2022-09-01T06:15:33;3.13;;;1.73;;
8230;SDS011;4156;50.908;6.974;2022-09-01T06:18:00;2.20;;;1.67;;
8230;SDS011;4156;50.908;6.974;2022-09-01T06:20:26;3.47;;;1.73;;
8230;SDS011;4156;50.908;6.974;2022-09-01T06:22:51;3.07;;;1.70;;
8230;SDS011;4156;50.908;6.974;2022-09-01T06:25:18;2.13;;;1.40;;
8230;SDS011;4156;50.908;6.974;2022-09-01T06:27:44;2.33;;;1.70;;
8230;SDS011;4156;50.908;6.974;2022-09-01T06:30:12;4.70;;;1.70;;
8230;SDS011;4156;50.908;6.974;2022-09-01T06:32:41;2.43;;;1.60;;
8230;SDS011;4156;50.908;6.974;2022-09-01T06:35:08;2.43;;;1.50;;
8230;SDS011;4156;50.908;6.974;2022-09-01T06:37:36;2.57;;;1.77;;
8230;SDS011;4156;50.908;6.974;2022-09-01T06:40:02;2.50;;;1.77;;
8230;SDS011;4156;50.908;6.974;2022-09-01T06:42:29;2.73;;;1.67;;
8230;SDS011;4156;50.908;6.974;2022-09-01T06:44:59;5.23;;;2.17;;
8230;SDS011;4156;50.908;6.974;2022-09-01T06:47:25;6.70;;;1.87;;
8230;SDS011;4156;50.908;6.974;2022-09-01T06:49:52;3.40;;;1.93;;
8230;SDS011;4156;50.908;6.974;2022-09-01T06:52:22;3.10;;;1.53;;
8230;SDS011;4156;50.908;6.974;2022-09-01T06:54:48;1.77;;;1.47;;
8230;SDS011;4156;50.908;6.974;2022-09-01T06:57:17;3.27;;;1.63;;
8230;SDS011;4156;50.908;6.974;2022-09-01T06:59:42;2.20;;;1.50;;
8230;SDS011;4156;50.908;6.974;2022-09-01T07:02:08;2.80;;;1.80;;
8230;SDS011;4156;50.908;6.974;2022-09-01T07:04:40;2.47;;;1.70;;
8230;SDS011;4156;50.908;6.974;2022-09-01T07:07:07;2.40;;;1.37;;
8230;SDS011;4156;50.908;6.974;2022-09-01T07:09:34;2.23;;;1.83;;
8230;SDS011;4156;50.908;6.974;2022-09-01T07:11:59;3.17;;;1.80;;
8230;SDS011;4156;50.908;6.974;2022-09-01T07:14:28;4.03;;;1.70;;
8230;SDS011;4156;50.908;6.974;2022-09-01T07:16:53;2.30;;;1.40;;
8230;SDS011;4156;50.908;6.974;2022-09-01T07:19:19;3.20;;;1.60;;
8230;SDS011;4156;50.908;6.974;2022-09-01T07:21:45;2.23;;;1.50;;
8230;SDS011;4156;50.908;6.974;2022-09-01T07:24:11;2.20;;;1.43;;
8230;SDS011;4156;50.908;6.974;2022-09-01T07:26:38;1.60;;;1.40;;
8230;SDS011;4156;50.908;6.974;2022-09-01T07:29:05;1.70;;;1.50;;
8230;SDS011;4156;50.908;6.974;2022-09-01T07:31:33;2.77;;;1.37;;
8230;SDS011;4156;50.908;6.974;2022-09-01T07:34:02;2.17;;;1.67;;
8230;SDS011;4156;50.908;6.974;2022-09-01T07:36:29;3.13;;;1.67;;
8230;SDS011;4156;50.908;6.974;2022-09-01T07:38:56;1.73;;;1.50;;
8230;SDS011;4156;50.908;6.974;2022-09-01T07:41:22;2.67;;;1.50;;
8230;SDS011;4156;50.908;6.974;2022-09-01T07:43:49;1.63;;;1.50;;
8230;SDS011;4156;50.908;6.974;2022-09-01T07:46:20;3.47;;;1.53;;
8230;SDS011;4156;50.908;6.974;2022-09-01T07:48:47;2.20;;;1.43;;
8230;SDS011;4156;50.908;6.974;2022-09-01T07:51:15;2.20;;;1.50;;
8230;SDS011;4156;50.908;6.974;2022-09-01T07:53:44;1.23;;;1.13;;
8230;SDS011;4156;50.908;6.974;2022-09-01T07:56:12;2.17;;;1.77;;
8230;SDS011;4156;50.908;6.974;2022-09-01T07:58:39;2.38;;;1.65;;
8230;SDS011;4156;50.908;6.974;2022-09-01T08:01:09;1.93;;;1.50;;
8230;SDS011;4156;50.908;6.974;2022-09-01T08:03:37;1.80;;;1.57;;
8230;SDS011;4156;50.908;6.974;2022-09-01T08:06:08;10.83;;;2.20;;
8230;SDS011;4156;50.908;6.974;2022-09-01T08:08:36;2.17;;;1.60;;
8230;SDS011;4156;50.908;6.974;2022-09-01T08:11:03;1.43;;;1.23;;
8230;SDS011;4156;50.908;6.974;2022-09-01T08:13:30;3.83;;;1.50;;
8230;SDS011;4156;50.908;6.974;2022-09-01T08:15:56;2.07;;;1.40;;
8230;SDS011;4156;50.908;6.974;2022-09-01T08:18:22;2.33;;;1.40;;
8230;SDS011;4156;50.908;6.974;2022-09-01T08:20:47;1.63;;;1.30;;
8230;SDS011;4156;50.908;6.974;2022-09-01T08:23:14;2.93;;;1.60;;
8230;SDS011;4156;50.908;6.974;2022-09-01T08:25:42;2.73;;;1.50;;
8230;SDS011;4156;50.908;6.974;2022-09-01T08:28:09;1.70;;;1.23;;
8230;SDS011;4156;50.908;6.974;2022-09-01T08:30:37;2.27;;;1.53;;
8230;SDS011;4156;50.908;6.974;2022-09-01T08:33:04;5.43;;;1.60;;
8230;SDS011;4156;50.908;6.974;2022-09-01T08:35:30;2.17;;;1.57;;
8230;SDS011;4156;50.908;6.974;2022-09-01T08:37:56;3.00;;;1.40;;
8230;SDS011;4156;50.908;6.974;2022-09-01T08:40:22;2.83;;;1.47;;
8230;SDS011;4156;50.908;6.974;2022-09-01T08:43:01;3.60;;;1.50;;
8230;SDS011;4156;50.908;6.974;2022-09-01T08:45:42;1.70;;;1.37;;
8230;SDS011;4156;50.908;6.974;2022-09-01T08:51:22;1.57;;;1.37;;
8230;SDS011;4156;50.908;6.974;2022-09-01T08:54:17;3.23;;;1.53;;
8230;SDS011;4156;50.908;6.974;2022-09-01T08:56:56;2.50;;;1.63;;
8230;SDS011;4156;50.908;6.974;2022-09-01T08:59:28;3.33;;;1.60;;
8230;SDS011;4156;50.908;6.974;2022-09-01T09:16:56;2.47;;;1.67;;
8230;SDS011;4156;50.908;6.974;2022-09-01T09:21:57;1.60;;;1.27;;
8230;SDS011;4156;50.908;6.974;2022-09-01T09:27:11;2.93;;;1.30;;
8230;SDS011;4156;50.908;6.974;2022-09-01T09:29:54;1.20;;;1.10;;
8230;SDS011;4156;50.908;6.974;2022-09-01T09:32:48;1.20;;;1.10;;
8230;SDS011;4156;50.908;6.974;2022-09-01T09:35:25;2.17;;;1.60;;
8230;SDS011;4156;50.908;6.974;2022-09-01T09:43:35;2.03;;;1.50;;
8230;SDS011;4156;50.908;6.974;2022-09-01T09:46:20;2.53;;;1.30;;
8230;SDS011;4156;50.908;6.974;2022-09-01T09:48:46;2.17;;;1.60;;
8230;SDS011;4156;50.908;6.974;2022-09-01T09:51:16;2.63;;;1.40;;
8230;SDS011;4156;50.908;6.974;2022-09-01T09:53:44;1.77;;;1.10;;
8230;SDS011;4156;50.908;6.974;2022-09-01T09:56:21;2.07;;;1.27;;
8230;SDS011;4156;50.908;6.974;2022-09-01T09:58:50;3.00;;;1.40;;
8230;SDS011;4156;50.908;6.974;2022-09-01T10:03:53;2.80;;;1.43;;
8230;SDS011;4156;50.908;6.974;2022-09-01T10:06:28;1.30;;;1.20;;
8230;SDS011;4156;50.908;6.974;2022-09-01T10:09:16;1.23;;;1.13;;
8230;SDS011;4156;50.908;6.974;2022-09-01T10:11:54;1.40;;;1.10;;
8230;SDS011;4156;50.908;6.974;2022-09-01T10:14:22;1.50;;;1.30;;
8230;SDS011;4156;50.908;6.974;2022-09-01T10:16:55;1.80;;;1.30;;
8230;SDS011;4156;50.908;6.974;2022-09-01T10:19:25;1.40;;;1.30;;
8230;SDS011;4156;50.908;6.974;2022-09-01T10:21:54;1.50;;;1.40;;
8230;SDS011;4156;50.908;6.974;2022-09-01T10:26:55;1.30;;;1.20;;
8230;SDS011;4156;50.908;6.974;2022-09-01T10:29:24;1.30;;;1.20;;
8230;SDS011;4156;50.908;6.974;2022-09-01T10:31:57;1.60;;;1.40;;
8230;SDS011;4156;50.908;6.974;2022-09-01T10:34:24;3.33;;;1.53;;
8230;SDS011;4156;50.908;6.974;2022-09-01T10:36:56;1.70;;;1.50;;
8230;SDS011;4156;50.908;6.974;2022-09-01T10:39:22;1.37;;;1.27;;
8230;SDS011;4156;50.908;6.974;2022-09-01T10:41:49;2.20;;;1.40;;
8230;SDS011;4156;50.908;6.974;2022-09-01T10:44:22;3.60;;;1.50;;
8230;SDS011;4156;50.908;6.974;2022-09-01T10:46:54;1.23;;;1.13;;
8230;SDS011;4156;50.908;6.974;2022-09-01T10:51:53;1.70;;;1.33;;
8230;SDS011;4156;50.908;6.974;2022-09-01T10:57:08;3.10;;;1.60;;
8230;SDS011;4156;50.908;6.974;2022-09-01T10:59:48;1.53;;;1.20;;
8230;SDS011;4156;50.908;6.974;2022-09-01T11:02:17;2.27;;;1.17;;
8230;SDS011;4156;50.908;6.974;2022-09-01T11:15:37;1.63;;;1.53;;
8230;SDS011;4156;50.908;6.974;2022-09-01T11:18:22;2.47;;;1.57;;
8230;SDS011;4156;50.908;6.974;2022-09-01T11:20:54;2.00;;;1.50;;
8230;SDS011;4156;50.908;6.974;2022-09-01T11:23:38;3.13;;;1.60;;
8230;SDS011;4156;50.908;6.974;2022-09-01T11:28:58;2.23;;;1.27;;
8230;SDS011;4156;50.908;6.974;2022-09-01T11:31:25;2.37;;;1.60;;
8230;SDS011;4156;50.908;6.974;2022-09-01T11:44:27;1.90;;;1.60;;
8230;SDS011;4156;50.908;6.974;2022-09-01T11:47:04;1.90;;;1.57;;
8230;SDS011;4156;50.908;6.974;2022-09-01T11:49:52;1.70;;;1.60;;
8230;SDS011;4156;50.908;6.974;2022-09-01T11:52:22;2.30;;;1.80;;
8230;SDS011;4156;50.908;6.974;2022-09-01T11:54:50;1.97;;;1.50;;
8230;SDS011;4156;50.908;6.974;2022-09-01T11:57:17;3.40;;;1.40;;
8230;SDS011;4156;50.908;6.974;2022-09-01T11:59:45;2.50;;;1.70;;
8230;SDS011;4156;50.908;6.974;2022-09-01T12:02:18;1.93;;;1.80;;
8230;SDS011;4156;50.908;6.974;2022-09-01T12:04:50;1.80;;;1.70;;
8230;SDS011;4156;50.908;6.974;2022-09-01T12:09:58;2.77;;;1.57;;
8230;SDS011;4156;50.908;6.974;2022-09-01T12:12:37;2.37;;;1.70;;
8230;SDS011;4156;50.908;6.974;2022-09-01T12:15:05;3.43;;;1.83;;
8230;SDS011;4156;50.908;6.974;2022-09-01T12:17:44;2.20;;;1.53;;
8230;SDS011;4156;50.908;6.974;2022-09-01T12:22:46;1.90;;;1.63;;
8230;SDS011;4156;50.908;6.974;2022-09-01T12:25:22;2.30;;;1.93;;
8230;SDS011;4156;50.908;6.974;2022-09-01T12:27:53;2.60;;;1.97;;
8230;SDS011;4156;50.908;6.974;2022-09-01T12:30:19;2.00;;;1.70;;
8230;SDS011;4156;50.908;6.974;2022-09-01T12:32:46;2.00;;;1.70;;
8230;SDS011;4156;50.908;6.974;2022-09-01T12:35:16;3.33;;;1.83;;
8230;SDS011;4156;50.908;6.974;2022-09-01T12:37:46;2.10;;;1.90;;
8230;SDS011;4156;50.908;6.974;2022-09-01T12:42:55;1.83;;;1.67;;
8230;SDS011;4156;50.908;6.974;2022-09-01T12:45:37;2.27;;;1.70;;
8230;SDS011;4156;50.908;6.974;2022-09-01T12:48:23;1.83;;;1.70;;
8230;SDS011;4156;50.908;6.974;2022-09-01T12:50:55;4.70;;;1.90;;
8230;SDS011;4156;50.908;6.974;2022-09-01T12:53:23;2.00;;;1.60;;
8230;SDS011;4156;50.908;6.974;2022-09-01T12:55:59;1.77;;;1.67;;
8230;SDS011;4156;50.908;6.974;2022-09-01T12:58:30;2.00;;;1.63;;
8230;SDS011;4156;50.908;6.974;2022-09-01T13:00:57;2.00;;;1.60;;
8230;SDS011;4156;50.908;6.974;2022-09-01T13:03:27;2.13;;;1.93;;
8230;SDS011;4156;50.908;6.974;2022-09-01T13:05:54;2.37;;;1.80;;
8230;SDS011;4156;50.908;6.974;2022-09-01T13:08:25;2.13;;;1.80;;
8230;SDS011;4156;50.908;6.974;2022-09-01T13:11:06;2.03;;;1.83;;
8230;SDS011;4156;50.908;6.974;2022-09-01T13:13:33;2.57;;;1.87;;
8230;SDS011;4156;50.908;6.974;2022-09-01T13:15:59;2.87;;;1.90;;
8230;SDS011;4156;50.908;6.974;2022-09-01T13:18:28;6.70;;;2.00;;
8230;SDS011;4156;50.908;6.974;2022-09-01T13:20:54;3.23;;;1.90;;
8230;SDS011;4156;50.908;6.974;2022-09-01T13:23:21;2.20;;;1.83;;
8230;SDS011;4156;50.908;6.974;2022-09-01T13:25:47;3.90;;;1.90;;
8230;SDS011;4156;50.908;6.974;2022-09-01T13:28:13;3.33;;;1.73;;
8230;SDS011;4156;50.908;6.974;2022-09-01T13:30:40;3.03;;;1.67;;
8230;SDS011;4156;50.908;6.974;2022-09-01T13:33:08;2.03;;;1.70;;
8230;SDS011;4156;50.908;6.974;2022-09-01T13:35:36;2.30;;;1.70;;
8230;SDS011;4156;50.908;6.974;2022-09-01T13:38:02;1.90;;;1.70;;
8230;SDS011;4156;50.908;6.974;2022-09-01T13:40:28;3.13;;;1.90;;
8230;SDS011;4156;50.908;6.974;2022-09-01T13:42:54;2.50;;;1.93;;
8230;SDS011;4156;50.908;6.974;2022-09-01T13:45:20;2.53;;;1.70;;
8230;SDS011;4156;50.908;6.974;2022-09-01T13:47:48;3.13;;;1.73;;
8230;SDS011;4156;50.908;6.974;2022-09-01T13:50:15;1.97;;;1.80;;
8230;SDS011;4156;50.908;6.974;2022-09-01T13:52:43;2.23;;;1.70;;
8230;SDS011;4156;50.908;6.974;2022-09-01T13:55:12;3.50;;;1.70;;
8230;SDS011;4156;50.908;6.974;2022-09-01T13:57:41;2.93;;;1.80;;
8230;SDS011;4156;50.908;6.974;2022-09-01T14:00:08;2.70;;;1.90;;
8230;SDS011;4156;50.908;6.974;2022-09-01T14:02:39;2.40;;;1.87;;
8230;SDS011;4156;50.908;6.974;2022-09-01T14:05:07;2.87;;;1.90;;
8230;SDS011;4156;50.908;6.974;2022-09-01T14:07:33;3.03;;;2.00;;
8230;SDS011;4156;50.908;6.974;2022-09-01T14:09:59;2.33;;;1.47;;
8230;SDS011;4156;50.908;6.974;2022-09-01T14:12:25;2.23;;;1.90;;
8230;SDS011;4156;50.908;6.974;2022-09-01T14:14:50;2.43;;;2.03;;
8230;SDS011;4156;50.908;6.974;2022-09-01T14:17:16;2.87;;;2.00;;
8230;SDS011;4156;50.908;6.974;2022-09-01T14:19:41;2.53;;;1.80;;
8230;SDS011;4156;50.908;6.974;2022-09-01T14:22:08;1.88;;;1.70;;
8230;SDS011;4156;50.908;6.974;2022-09-01T14:24:34;2.33;;;2.10;;
8230;SDS011;4156;50.908;6.974;2022-09-01T14:27:00;2.10;;;1.70;;
8230;SDS011;4156;50.908;6.974;2022-09-01T14:29:26;2.35;;;1.70;;
8230;SDS011;4156;50.908;6.974;2022-09-01T14:31:51;2.07;;;1.83;;
8230;SDS011;4156;50.908;6.974;2022-09-01T14:34:18;1.90;;;1.53;;
8230;SDS011;4156;50.908;6.974;2022-09-01T14:36:43;3.90;;;2.00;;
8230;SDS011;4156;50.908;6.974;2022-09-01T14:39:09;1.87;;;1.57;;
8230;SDS011;4156;50.908;6.974;2022-09-01T14:41:35;2.30;;;2.00;;
8230;SDS011;4156;50.908;6.974;2022-09-01T14:44:00;2.67;;;2.03;;
8230;SDS011;4156;50.908;6.974;2022-09-01T14:46:26;2.30;;;1.97;;
8230;SDS011;4156;50.908;6.974;2022-09-01T14:48:54;3.37;;;1.80;;
8230;SDS011;4156;50.908;6.974;2022-09-01T14:51:24;2.73;;;1.90;;
8230;SDS011;4156;50.908;6.974;2022-09-01T14:53:52;1.83;;;1.70;;
8230;SDS011;4156;50.908;6.974;2022-09-01T14:56:19;2.97;;;2.00;;
8230;SDS011;4156;50.908;6.974;2022-09-01T14:58:45;2.17;;;1.87;;
8230;SDS011;4156;50.908;6.974;2022-09-01T15:01:12;2.90;;;1.97;;
8230;SDS011;4156;50.908;6.974;2022-09-01T15:03:39;2.22;;;1.75;;
8230;SDS011;4156;50.908;6.974;2022-09-01T15:06:06;2.93;;;2.00;;
8230;SDS011;4156;50.908;6.974;2022-09-01T15:08:31;2.47;;;1.80;;
8230;SDS011;4156;50.908;6.974;2022-09-01T15:10:57;1.93;;;1.77;;
8230;SDS011;4156;50.908;6.974;2022-09-01T15:13:25;2.13;;;1.90;;
8230;SDS011;4156;50.908;6.974;2022-09-01T15:15:50;1.97;;;1.77;;
8230;SDS011;4156;50.908;6.974;2022-09-01T15:18:17;2.33;;;1.67;;
8230;SDS011;4156;50.908;6.974;2022-09-01T15:20:43;2.13;;;1.80;;
8230;SDS011;4156;50.908;6.974;2022-09-01T15:23:19;2.47;;;1.80;;
8230;SDS011;4156;50.908;6.974;2022-09-01T15:25:47;2.10;;;1.80;;
8230;SDS011;4156;50.908;6.974;2022-09-01T15:28:16;2.00;;;1.80;;
8230;SDS011;4156;50.908;6.974;2022-09-01T15:30:42;3.08;;;1.80;;
8230;SDS011;4156;50.908;6.974;2022-09-01T15:33:09;2.00;;;1.80;;
8230;SDS011;4156;50.908;6.974;2022-09-01T15:35:35;1.95;;;1.73;;
8230;SDS011;4156;50.908;6.974;2022-09-01T15:38:01;3.05;;;1.70;;
8230;SDS011;4156;50.908;6.974;2022-09-01T15:40:27;1.70;;;1.60;;
8230;SDS011;4156;50.908;6.974;2022-09-01T15:42:53;2.03;;;1.80;;
8230;SDS011;4156;50.908;6.974;2022-09-01T15:45:20;2.17;;;1.92;;
8230;SDS011;4156;50.908;6.974;2022-09-01T15:47:48;1.70;;;1.50;;
8230;SDS011;4156;50.908;6.974;2022-09-01T15:50:14;1.98;;;1.77;;
8230;SDS011;4156;50.908;6.974;2022-09-01T15:52:46;1.77;;;1.67;;
8230;SDS011;4156;50.908;6.974;2022-09-01T15:55:23;1.63;;;1.50;;
8230;SDS011;4156;50.908;6.974;2022-09-01T15:57:51;2.08;;;1.70;;
8230;SDS011;4156;50.908;6.974;2022-09-01T16:00:18;3.78;;;1.92;;
8230;SDS011;4156;50.908;6.974;2022-09-01T16:02:43;1.80;;;1.60;;
8230;SDS011;4156;50.908;6.974;2022-09-01T16:05:09;1.95;;;1.67;;
8230;SDS011;4156;50.908;6.974;2022-09-01T16:07:35;2.10;;;1.90;;
8230;SDS011;4156;50.908;6.974;2022-09-01T16:10:00;3.50;;;1.80;;
8230;SDS011;4156;50.908;6.974;2022-09-01T16:12:26;2.67;;;1.55;;
8230;SDS011;4156;50.908;6.974;2022-09-01T16:14:52;1.77;;;1.67;;
8230;SDS011;4156;50.908;6.974;2022-09-01T16:17:29;1.70;;;1.60;;
8230;SDS011;4156;50.908;6.974;2022-09-01T16:20:09;3.83;;;1.77;;
8230;SDS011;4156;50.908;6.974;2022-09-01T16:22:43;1.90;;;1.70;;
8230;SDS011;4156;50.908;6.974;2022-09-01T16:25:18;1.85;;;1.63;;
8230;SDS011;4156;50.908;6.974;2022-09-01T16:27:55;1.80;;;1.63;;
8230;SDS011;4156;50.908;6.974;2022-09-01T16:30:26;1.93;;;1.73;;
8230;SDS011;4156;50.908;6.974;2022-09-01T16:32:53;2.65;;;1.80;;
8230;SDS011;4156;50.908;6.974;2022-09-01T16:35:22;1.98;;;1.77;;
8230;SDS011;4156;50.908;6.974;2022-09-01T16:40:46;2.20;;;1.50;;
8230;SDS011;4156;50.908;6.974;2022-09-01T16:43:28;2.40;;;1.80;;
8230;SDS011;4156;50.908;6.974;2022-09-01T16:48:43;3.13;;;1.90;;